createdAt,value
2022-09-18T00:01:33.317Z,9.10
2022-09-18T00:04:02.925Z,9.20
2022-09-18T00:06:33.893Z,9.10
2022-09-18T00:09:03.278Z,9.10
2022-09-18T00:11:37.229Z,9.20
2022-09-18T00:14:06.837Z,9.10
2022-09-18T00:16:35.131Z,9.20
2022-09-18T00:19:03.338Z,9.20
2022-09-18T00:21:31.964Z,9.20
2022-09-18T00:24:01.544Z,9.10
2022-09-18T00:26:30.087Z,9.10
2022-09-18T00:28:59.857Z,9.10
2022-09-18T00:31:31.317Z,9.10
2022-09-18T00:34:00.471Z,9.10
2022-09-18T00:36:29.567Z,9.00
2022-09-18T00:38:59.216Z,9.00
2022-09-18T00:41:29.603Z,9.10
2022-09-18T00:44:35.609Z,9.00
2022-09-18T00:47:24.171Z,9.10
2022-09-18T00:49:57.754Z,9.10
2022-09-18T00:52:30.159Z,9.00
2022-09-18T00:55:03.479Z,9.00
2022-09-18T00:57:34.532Z,9.00
2022-09-18T01:00:10.375Z,9.10
2022-09-18T01:02:38.519Z,9.00
2022-09-18T01:05:07.560Z,9.00
2022-09-18T01:07:51.596Z,9.00
2022-09-18T01:10:33.146Z,9.00
2022-09-18T01:13:09.587Z,9.10
2022-09-18T01:15:45.619Z,9.10
2022-09-18T01:18:21.220Z,9.20
2022-09-18T01:21:01.983Z,9.20
2022-09-18T01:24:01.470Z,9.10
2022-09-18T01:26:49.035Z,9.20
2022-09-18T01:29:26.479Z,9.30
2022-09-18T01:32:00.381Z,9.30
2022-09-18T01:34:35.303Z,9.30
2022-09-18T01:37:11.075Z,9.40
2022-09-18T01:39:43.770Z,9.40
2022-09-18T01:42:13.945Z,9.40
2022-09-18T01:44:45.826Z,9.40
2022-09-18T01:47:18.183Z,9.30
2022-09-18T01:49:48.596Z,9.30
2022-09-18T01:52:21.837Z,9.40
2022-09-18T01:54:51.602Z,9.30
2022-09-18T01:57:24.090Z,9.30
2022-09-18T01:59:59.659Z,9.40
2022-09-18T02:02:32.539Z,9.40
2022-09-18T02:05:03.338Z,9.40
2022-09-18T02:07:38.603Z,9.50
2022-09-18T02:10:08.228Z,9.50
2022-09-18T02:12:40.102Z,9.60
2022-09-18T02:15:14.930Z,9.50
2022-09-18T02:17:47.449Z,9.60
2022-09-18T02:20:20.660Z,9.60
2022-09-18T02:22:53.022Z,9.50
2022-09-18T02:25:25.453Z,9.50
2022-09-18T02:27:54.914Z,9.50
2022-09-18T02:30:24.977Z,9.70
2022-09-18T02:32:55.564Z,9.70
2022-09-18T02:35:28.107Z,9.70
2022-09-18T02:38:02.623Z,9.70
2022-09-18T02:40:39.125Z,9.60
2022-09-18T02:43:19.764Z,9.60
2022-09-18T02:45:58.793Z,9.60
2022-09-18T02:48:48.551Z,9.70
2022-09-18T02:51:24.177Z,9.70
2022-09-18T02:53:58.144Z,9.70
2022-09-18T02:56:32.900Z,9.70
2022-09-18T03:01:59.867Z,9.70
2022-09-18T03:04:29.236Z,9.80
2022-09-18T03:06:57.123Z,9.70
2022-09-18T03:09:25.750Z,9.80
2022-09-18T03:11:53.971Z,9.80
2022-09-18T03:14:22.027Z,9.80
2022-09-18T03:16:50.024Z,9.80
2022-09-18T03:19:19.404Z,9.80
2022-09-18T03:21:47.392Z,9.90
2022-09-18T03:24:15.266Z,9.90
2022-09-18T03:26:43.287Z,9.80
2022-09-18T03:29:11.508Z,9.90
2022-09-18T03:31:39.479Z,9.80
2022-09-18T03:34:08.271Z,9.90
2022-09-18T03:36:37.689Z,10.00
2022-09-18T03:39:06.515Z,10.00
2022-09-18T03:41:34.495Z,9.90
2022-09-18T03:44:02.604Z,10.00
2022-09-18T03:46:30.642Z,10.00
2022-09-18T03:48:58.571Z,10.00
2022-09-18T03:51:26.616Z,10.00
2022-09-18T03:53:55.975Z,10.00
2022-09-18T03:56:23.832Z,10.00
2022-09-18T03:58:53.323Z,9.90
2022-09-18T04:01:21.276Z,9.90
2022-09-18T04:03:49.780Z,9.90
2022-09-18T04:06:17.750Z,9.90
2022-09-18T04:08:45.597Z,9.90
2022-09-18T04:11:14.952Z,10.00
2022-09-18T04:13:43.110Z,10.00
2022-09-18T04:16:11.081Z,10.00
2022-09-18T04:18:38.950Z,10.00
2022-09-18T04:21:07.126Z,9.90
2022-09-18T04:23:35.118Z,10.10
2022-09-18T04:26:08.932Z,10.10
2022-09-18T04:28:38.561Z,10.10
2022-09-18T04:31:06.938Z,10.10
2022-09-18T04:33:34.937Z,10.10
2022-09-18T04:36:03.269Z,10.10
2022-09-18T04:38:31.212Z,10.10
2022-09-18T04:41:00.115Z,10.20
2022-09-18T04:43:29.343Z,10.20
2022-09-18T04:45:58.751Z,10.10
2022-09-18T04:48:26.690Z,10.20
2022-09-18T04:50:54.591Z,10.10
2022-09-18T04:53:22.562Z,10.20
2022-09-18T04:55:50.538Z,10.20
2022-09-18T04:58:20.549Z,10.40
2022-09-18T05:00:50.584Z,10.20
2022-09-18T05:03:22.471Z,10.30
2022-09-18T05:05:50.426Z,10.30
2022-09-18T05:08:18.612Z,10.30
2022-09-18T05:10:46.581Z,10.30
2022-09-18T05:13:14.588Z,10.30
2022-09-18T05:15:42.702Z,10.30
2022-09-18T05:18:12.513Z,10.40
2022-09-18T05:20:42.381Z,10.30
2022-09-18T05:23:10.658Z,10.30
2022-09-18T05:25:38.509Z,10.30
2022-09-18T05:28:06.515Z,10.30
2022-09-18T05:30:35.251Z,10.40
2022-09-18T05:33:05.016Z,10.30
2022-09-18T05:35:34.893Z,10.40
2022-09-18T05:38:05.041Z,10.50
2022-09-18T05:40:35.293Z,10.40
2022-09-18T05:43:03.792Z,10.50
2022-09-18T05:45:31.811Z,10.50
2022-09-18T05:48:01.607Z,10.50
2022-09-18T05:50:31.007Z,10.50
2022-09-18T05:53:01.045Z,10.50
2022-09-18T05:55:31.899Z,10.60
2022-09-18T05:58:02.759Z,10.60
2022-09-18T06:00:33.628Z,10.50
2022-09-18T06:03:03.090Z,10.50
2022-09-18T06:05:32.658Z,10.50
2022-09-18T06:08:01.755Z,10.50
2022-09-18T06:10:32.796Z,10.50
2022-09-18T06:13:04.132Z,10.60
2022-09-18T06:15:32.382Z,10.60
2022-09-18T06:18:00.457Z,10.70
2022-09-18T06:20:28.908Z,10.70
2022-09-18T06:23:00.510Z,10.70
2022-09-18T06:25:30.280Z,10.70
2022-09-18T06:28:00.998Z,10.70
2022-09-18T06:30:30.295Z,10.70
2022-09-18T06:33:02.188Z,10.70
2022-09-18T06:35:30.202Z,10.70
2022-09-18T06:38:03.150Z,10.80
2022-09-18T06:40:33.276Z,10.80
2022-09-18T06:43:02.743Z,10.90
2022-09-18T06:45:31.897Z,10.90
2022-09-18T06:48:02.357Z,10.90
2022-09-18T06:50:30.822Z,10.90
2022-09-18T06:53:04.568Z,10.90
2022-09-18T06:55:35.951Z,10.80
2022-09-18T06:58:03.888Z,10.70
2022-09-18T07:00:32.224Z,10.80
2022-09-18T07:03:01.992Z,10.80
2022-09-18T07:05:32.174Z,10.80
2022-09-18T07:08:00.832Z,10.80
2022-09-18T07:10:29.214Z,10.80
2022-09-18T07:12:59.253Z,10.90
2022-09-18T07:15:28.077Z,10.90
2022-09-18T07:17:57.341Z,11.00
2022-09-18T07:20:25.969Z,10.90
2022-09-18T07:22:54.959Z,10.90
2022-09-18T07:25:23.137Z,10.90
2022-09-18T07:27:51.268Z,11.00
2022-09-18T07:30:20.870Z,11.00
2022-09-18T07:32:48.795Z,10.90
2022-09-18T07:35:16.912Z,11.00
2022-09-18T07:37:44.691Z,11.00
2022-09-18T07:40:12.875Z,11.00
2022-09-18T07:42:41.069Z,11.00
2022-09-18T07:45:09.441Z,10.90
2022-09-18T07:47:38.733Z,11.00
2022-09-18T07:50:09.080Z,11.00
2022-09-18T07:52:37.039Z,11.00
2022-09-18T07:55:05.688Z,11.00
2022-09-18T07:57:33.587Z,11.00
2022-09-18T08:00:01.487Z,11.10
2022-09-18T08:02:29.979Z,11.10
2022-09-18T08:04:59.266Z,11.10
2022-09-18T08:07:27.234Z,11.20
2022-09-18T08:09:55.261Z,11.30
2022-09-18T08:12:23.148Z,11.30
2022-09-18T08:14:51.445Z,11.30
2022-09-18T08:17:19.442Z,11.40
2022-09-18T08:19:47.305Z,11.50
2022-09-18T08:27:44.284Z,11.40
2022-09-18T08:30:14.722Z,11.50
2022-09-18T08:32:43.019Z,11.40
2022-09-18T08:35:12.128Z,11.40
2022-09-18T08:37:47.712Z,11.50
2022-09-18T08:40:19.085Z,11.40
2022-09-18T08:43:01.350Z,11.50
2022-09-18T08:45:40.346Z,11.60
2022-09-18T08:48:14.368Z,11.60
2022-09-18T08:50:45.042Z,11.60
2022-09-18T08:53:17.434Z,11.60
2022-09-18T08:55:49.814Z,11.60
2022-09-18T08:58:21.261Z,11.50
2022-09-18T09:00:51.604Z,11.70
2022-09-18T09:03:28.216Z,11.70
2022-09-18T09:05:59.966Z,11.80
2022-09-18T09:08:38.808Z,11.90
2022-09-18T09:11:17.198Z,11.90
2022-09-18T09:14:10.665Z,12.10
2022-09-18T09:16:44.008Z,12.20
2022-09-18T09:19:25.360Z,12.30
2022-09-18T09:22:01.218Z,12.30
2022-09-18T09:24:33.690Z,12.40
2022-09-18T09:27:19.367Z,12.40
2022-09-18T09:29:48.492Z,12.40
2022-09-18T09:32:25.949Z,12.30
2022-09-18T09:34:59.854Z,12.30
2022-09-18T09:37:37.670Z,12.30
2022-09-18T09:40:16.260Z,12.30
2022-09-18T09:42:51.478Z,12.30
2022-09-18T09:45:26.070Z,12.20
2022-09-18T09:48:02.672Z,12.30
2022-09-18T09:50:41.287Z,12.20
2022-09-18T09:53:12.954Z,12.20
2022-09-18T09:55:51.122Z,12.20
2022-09-18T09:58:33.991Z,12.30
2022-09-18T10:01:11.475Z,12.30
2022-09-18T10:04:06.787Z,12.30
2022-09-18T10:06:49.094Z,12.50
2022-09-18T10:09:22.835Z,12.50
2022-09-18T10:11:59.499Z,12.50
2022-09-18T10:14:31.481Z,12.60
2022-09-18T10:17:00.094Z,12.60
2022-09-18T10:19:36.743Z,12.60
2022-09-18T10:22:07.438Z,12.60
2022-09-18T10:24:45.363Z,12.60
2022-09-18T10:27:15.087Z,12.70
2022-09-18T10:29:44.574Z,12.80
2022-09-18T10:32:13.900Z,12.80
2022-09-18T10:34:43.341Z,12.80
2022-09-18T10:37:17.183Z,12.90
2022-09-18T10:39:51.404Z,12.90
2022-09-18T10:42:22.528Z,13.00
2022-09-18T10:44:57.873Z,13.10
2022-09-18T10:47:30.629Z,13.20
2022-09-18T10:50:02.227Z,13.30
2022-09-18T10:52:35.073Z,13.20
2022-09-18T10:55:20.836Z,13.20
2022-09-18T10:58:04.618Z,13.30
2022-09-18T11:00:53.284Z,13.30
2022-09-18T11:03:34.787Z,13.20
2022-09-18T11:06:05.209Z,13.20
2022-09-18T11:08:37.093Z,13.30
2022-09-18T11:11:07.774Z,13.20
2022-09-18T11:13:43.337Z,13.10
2022-09-18T11:16:13.625Z,13.00
2022-09-18T11:18:41.634Z,13.10
2022-09-18T11:21:09.575Z,13.00
2022-09-18T11:23:38.696Z,13.00
2022-09-18T11:26:19.314Z,13.00
2022-09-18T11:29:02.331Z,12.90
2022-09-18T11:31:41.690Z,13.10
2022-09-18T11:34:21.450Z,13.10
2022-09-18T11:36:52.347Z,13.30
2022-09-18T11:39:25.552Z,13.30
2022-09-18T11:41:55.458Z,13.40
2022-09-18T11:44:26.678Z,13.50
2022-09-18T11:47:33.303Z,13.50
2022-09-18T11:50:12.860Z,13.60
2022-09-18T11:52:44.470Z,13.50
2022-09-18T11:55:22.186Z,13.30
2022-09-18T11:57:54.439Z,13.30
2022-09-18T12:00:24.450Z,13.30
2022-09-18T12:03:06.786Z,13.30
2022-09-18T12:05:51.463Z,13.40
2022-09-18T12:08:26.137Z,13.50
2022-09-18T12:11:04.373Z,13.50
2022-09-18T12:13:40.062Z,13.70
2022-09-18T12:16:16.122Z,13.70
2022-09-18T12:18:55.021Z,13.50
2022-09-18T12:21:36.245Z,13.40
2022-09-18T12:24:04.689Z,13.60
2022-09-18T12:26:39.603Z,13.60
2022-09-18T12:29:17.385Z,13.60
2022-09-18T12:32:07.089Z,13.60
2022-09-18T12:34:44.426Z,13.70
2022-09-18T12:37:32.733Z,13.60
2022-09-18T12:40:16.203Z,13.70
2022-09-18T12:42:59.169Z,13.80
2022-09-18T12:45:50.065Z,13.80
2022-09-18T12:48:39.373Z,13.90
2022-09-18T12:51:26.169Z,14.00
2022-09-18T12:54:06.610Z,14.10
2022-09-18T12:56:48.209Z,13.90
2022-09-18T12:59:38.672Z,13.90
2022-09-18T13:02:25.561Z,13.80
2022-09-18T13:04:59.492Z,13.70
2022-09-18T13:07:33.223Z,13.60
2022-09-18T13:10:07.630Z,13.50
2022-09-18T13:12:41.958Z,13.40
2022-09-18T13:15:17.893Z,13.30
2022-09-18T13:17:51.096Z,13.40
2022-09-18T13:20:24.673Z,13.40
2022-09-18T13:22:54.639Z,13.60
2022-09-18T13:25:32.431Z,13.70
2022-09-18T13:28:02.357Z,13.70
2022-09-18T13:30:31.201Z,13.70
2022-09-18T13:33:01.244Z,13.80
2022-09-18T13:35:30.979Z,13.90
2022-09-18T13:38:16.957Z,13.90
2022-09-18T13:40:48.994Z,14.10
2022-09-18T13:43:34.820Z,14.10
2022-09-18T13:46:07.101Z,14.30
2022-09-18T13:48:42.159Z,14.30
2022-09-18T13:51:17.973Z,14.40
2022-09-18T13:53:46.127Z,14.30
2022-09-18T13:56:17.221Z,14.40
2022-09-18T13:58:50.777Z,14.40
2022-09-18T14:01:56.348Z,14.40
2022-09-18T14:04:50.779Z,14.40
2022-09-18T14:07:53.968Z,14.40
2022-09-18T14:10:26.058Z,14.30
2022-09-18T14:13:25.036Z,14.40
2022-09-18T14:15:55.926Z,14.40
2022-09-18T14:18:28.231Z,14.30
2022-09-18T14:21:12.394Z,14.50
2022-09-18T14:24:36.424Z,14.50
2022-09-18T14:27:36.717Z,14.40
2022-09-18T14:30:22.742Z,14.50
2022-09-18T14:33:12.757Z,14.40
2022-09-18T14:35:48.443Z,14.40
2022-09-18T14:38:27.756Z,14.50
2022-09-18T14:41:00.494Z,14.50
2022-09-18T14:43:28.837Z,14.40
2022-09-18T14:45:58.378Z,14.50
2022-09-18T14:48:31.704Z,14.50
2022-09-18T14:51:05.685Z,14.40
2022-09-18T14:53:43.585Z,14.30
2022-09-18T14:56:14.835Z,14.20
2022-09-18T14:58:46.324Z,14.20
2022-09-18T15:01:19.930Z,14.30
2022-09-18T15:03:51.197Z,14.20
2022-09-18T15:06:22.306Z,14.20
2022-09-18T15:08:53.268Z,14.30
2022-09-18T15:11:24.661Z,14.30
2022-09-18T15:13:55.105Z,14.30
2022-09-18T15:16:28.430Z,14.30
2022-09-18T15:18:57.103Z,14.30
2022-09-18T15:21:32.299Z,14.20
2022-09-18T15:24:03.336Z,14.00
2022-09-18T15:26:33.786Z,14.00
2022-09-18T15:29:03.757Z,14.00
2022-09-18T15:31:33.878Z,14.10
2022-09-18T15:34:07.417Z,14.10
2022-09-18T15:36:37.908Z,14.10
2022-09-18T15:39:07.745Z,14.00
2022-09-18T15:41:41.470Z,14.00
2022-09-18T15:44:50.661Z,14.10
2022-09-18T15:47:35.114Z,14.00
2022-09-18T15:50:26.698Z,14.00
2022-09-18T15:53:18.709Z,14.00
2022-09-18T15:55:59.824Z,13.90
2022-09-18T15:58:46.479Z,13.90
2022-09-18T16:01:24.399Z,13.90
2022-09-18T16:04:09.023Z,14.10
2022-09-18T16:06:43.686Z,14.10
2022-09-18T16:09:25.871Z,13.90
2022-09-18T16:11:54.694Z,13.90
2022-09-18T16:14:50.158Z,13.90
2022-09-18T16:17:54.142Z,13.90
2022-09-18T16:20:26.184Z,13.80
2022-09-18T16:22:57.766Z,13.90
2022-09-18T16:25:30.435Z,13.90
2022-09-18T16:28:00.370Z,13.80
2022-09-18T16:30:29.807Z,13.80
2022-09-18T16:33:04.100Z,13.70
2022-09-18T16:35:32.122Z,13.80
2022-09-18T16:38:00.327Z,13.80
2022-09-18T16:40:31.310Z,13.80
2022-09-18T16:42:59.462Z,13.70
2022-09-18T16:45:28.012Z,13.80
2022-09-18T16:48:00.638Z,13.70
2022-09-18T16:50:29.180Z,13.70
2022-09-18T16:53:01.410Z,13.70
2022-09-18T16:55:31.662Z,13.70
2022-09-18T16:58:00.946Z,13.70
2022-09-18T17:00:29.036Z,13.70
2022-09-18T17:02:57.632Z,13.60
2022-09-18T17:05:25.794Z,13.60
2022-09-18T17:07:53.740Z,13.70
2022-09-18T17:10:21.691Z,13.80
2022-09-18T17:12:51.056Z,13.80
2022-09-18T17:15:18.979Z,13.80
2022-09-18T17:17:47.081Z,13.70
2022-09-18T17:20:18.084Z,13.70
2022-09-18T17:22:46.310Z,13.70
2022-09-18T17:25:15.519Z,13.70
2022-09-18T17:27:44.182Z,13.60
2022-09-18T17:30:14.217Z,13.60
2022-09-18T17:32:43.112Z,13.60
2022-09-18T17:35:11.078Z,13.60
2022-09-18T17:37:39.369Z,13.60
2022-09-18T17:40:08.621Z,13.60
2022-09-18T17:42:37.936Z,13.60
2022-09-18T17:45:06.879Z,13.50
2022-09-18T17:47:36.309Z,13.50
2022-09-18T17:50:05.797Z,13.40
2022-09-18T17:52:34.797Z,13.40
2022-09-18T17:55:03.312Z,13.30
2022-09-18T17:57:32.917Z,13.50
2022-09-18T18:00:00.897Z,13.30
2022-09-18T18:02:29.130Z,13.40
2022-09-18T18:04:58.770Z,13.50
2022-09-18T18:07:26.665Z,13.40
2022-09-18T18:09:54.531Z,13.40
2022-09-18T18:12:22.510Z,13.50
2022-09-18T18:14:50.545Z,13.50
2022-09-18T18:17:18.875Z,13.50
2022-09-18T18:19:46.906Z,13.50
2022-09-18T18:22:16.332Z,13.40
2022-09-18T18:24:44.504Z,13.40
2022-09-18T18:27:12.375Z,13.40
2022-09-18T18:29:42.553Z,13.50
2022-09-18T18:32:12.300Z,13.50
2022-09-18T18:34:40.459Z,13.40
2022-09-18T18:37:08.327Z,13.40
2022-09-18T18:39:37.672Z,13.40
2022-09-18T18:42:06.206Z,13.40
2022-09-18T18:44:34.416Z,13.30
2022-09-18T18:47:02.567Z,13.20
2022-09-18T18:49:31.209Z,13.20
2022-09-18T18:51:59.194Z,13.30
2022-09-18T18:54:27.126Z,13.30
2022-09-18T18:56:56.604Z,13.30
2022-09-18T18:59:25.545Z,13.20
2022-09-18T19:01:56.901Z,13.20
2022-09-18T19:04:25.388Z,13.30
2022-09-18T19:06:53.938Z,13.10
2022-09-18T19:09:24.408Z,13.20
2022-09-18T19:11:53.916Z,13.10
2022-09-18T19:14:25.228Z,13.20
2022-09-18T19:16:54.271Z,13.20
2022-09-18T19:19:24.658Z,13.00
2022-09-18T19:21:53.041Z,13.00
2022-09-18T19:24:21.744Z,13.00
2022-09-18T19:26:49.698Z,12.90
2022-09-18T19:29:19.490Z,12.90
2022-09-18T19:31:49.708Z,12.90
2022-09-18T19:34:20.090Z,12.90
2022-09-18T19:36:50.333Z,12.90
2022-09-18T19:39:20.860Z,12.80
2022-09-18T19:41:52.365Z,12.80
2022-09-18T19:44:26.110Z,12.80
2022-09-18T19:46:56.952Z,12.70
2022-09-18T19:49:29.916Z,12.70
2022-09-18T19:51:58.756Z,12.70
2022-09-18T19:54:26.724Z,12.60
2022-09-18T19:56:54.633Z,12.70
2022-09-18T19:59:22.692Z,12.70
2022-09-18T20:01:50.697Z,12.60
2022-09-18T20:04:20.174Z,12.60
2022-09-18T20:06:48.029Z,12.60
2022-09-18T20:09:15.905Z,12.70
2022-09-18T20:11:48.026Z,12.80
2022-09-18T20:14:16.881Z,12.70
2022-09-18T20:16:44.842Z,12.70
2022-09-18T20:19:12.822Z,12.70
2022-09-18T20:21:43.139Z,12.70
2022-09-18T20:24:11.030Z,12.70
2022-09-18T20:26:38.984Z,12.70
2022-09-18T20:29:07.148Z,12.70
2022-09-18T20:31:35.070Z,12.70
2022-09-18T20:34:04.770Z,12.80
2022-09-18T20:36:33.025Z,12.80
2022-09-18T20:39:02.334Z,12.70
2022-09-18T20:41:30.923Z,12.60
2022-09-18T20:44:04.833Z,12.60
2022-09-18T20:46:37.182Z,12.60
2022-09-18T20:49:06.422Z,12.60
2022-09-18T20:51:36.161Z,12.50
2022-09-18T20:54:08.708Z,12.60
2022-09-18T20:56:41.460Z,12.50
2022-09-18T20:59:10.731Z,12.60
2022-09-18T21:01:42.114Z,12.80
2022-09-18T21:04:16.896Z,12.70
2022-09-18T21:06:46.189Z,12.70
2022-09-18T21:09:16.061Z,12.60
2022-09-18T21:11:45.712Z,12.70
2022-09-18T21:14:15.465Z,12.70
2022-09-18T21:16:43.898Z,12.70
2022-09-18T21:19:12.889Z,12.70
2022-09-18T21:21:41.573Z,12.70
2022-09-18T21:24:10.083Z,12.70
2022-09-18T21:26:41.132Z,12.70
2022-09-18T21:29:12.695Z,12.70
2022-09-18T21:31:43.299Z,12.70
2022-09-18T21:34:13.244Z,12.80
2022-09-18T21:36:44.830Z,12.70
2022-09-18T21:39:14.475Z,12.80
2022-09-18T21:41:46.542Z,12.70
2022-09-18T21:44:16.050Z,12.60
2022-09-18T21:46:46.107Z,12.60
2022-09-18T21:49:16.217Z,12.50
2022-09-18T21:51:44.851Z,12.40
2022-09-18T21:54:16.116Z,12.30
2022-09-18T21:56:51.726Z,12.30
2022-09-18T21:59:20.616Z,12.20
2022-09-18T22:01:48.967Z,12.00
2022-09-18T22:04:17.938Z,12.00
2022-09-18T22:06:47.771Z,11.90
2022-09-18T22:09:17.735Z,12.00
2022-09-18T22:11:48.579Z,11.80
2022-09-18T22:14:19.355Z,11.50
2022-09-18T22:16:48.331Z,11.40
2022-09-18T22:19:17.237Z,11.20
2022-09-18T22:21:47.803Z,11.30
2022-09-18T22:24:18.947Z,11.10
2022-09-18T22:26:50.593Z,11.10
2022-09-18T22:29:20.053Z,10.80
2022-09-18T22:31:49.270Z,10.90
2022-09-18T22:34:19.019Z,10.80
2022-09-18T22:36:47.847Z,10.80
2022-09-18T22:39:17.033Z,10.80
2022-09-18T22:41:45.558Z,10.80
2022-09-18T22:44:15.466Z,10.70
2022-09-18T22:46:45.617Z,10.70
2022-09-18T22:49:14.681Z,10.80
2022-09-18T22:51:42.881Z,10.80
2022-09-18T22:54:10.783Z,10.70
2022-09-18T22:56:41.450Z,10.70
2022-09-18T22:59:11.777Z,10.70
2022-09-18T23:01:46.035Z,10.70
2022-09-18T23:04:15.690Z,10.60
2022-09-18T23:06:43.768Z,10.60
2022-09-18T23:09:13.744Z,10.60
2022-09-18T23:11:42.881Z,10.60
2022-09-18T23:14:15.099Z,10.60
2022-09-18T23:16:44.558Z,10.50
2022-09-18T23:19:15.934Z,10.50
2022-09-18T23:21:43.978Z,10.50
2022-09-18T23:24:12.280Z,10.50
2022-09-18T23:26:41.952Z,10.50
2022-09-18T23:29:12.670Z,10.50
2022-09-18T23:31:43.469Z,10.50
2022-09-18T23:34:15.997Z,10.60
2022-09-18T23:36:45.174Z,10.60
2022-09-18T23:39:16.184Z,10.70
2022-09-18T23:41:44.433Z,10.70
2022-09-18T23:44:15.007Z,10.80
2022-09-18T23:46:44.177Z,10.80
2022-09-18T23:49:22.349Z,10.80
2022-09-18T23:51:51.179Z,10.70
2022-09-18T23:54:20.868Z,10.60
2022-09-18T23:56:49.179Z,10.60
2022-09-18T23:59:22.677Z,10.70
